Time;durP1;ratioP1;P1;durP2;ratioP2;P2;SDS_P1;SDS_P2;PMS_P1;PMS_P2;Temp;Humidity;BMP_temperature;BMP_pressure;BME280_temperature;BME280_humidity;BME280_pressure;Samples;Min_cycle;Max_cycle;Signal;HPM_P1;HPM_P2
2022/10/07 00:01:45;;;;;;;;;;;;;;;;;;5096165;28;19956;-73
2022/10/07 00:04:11;;;;;;;;;;;;;;;;;;5092354;28;19966;-74
2022/10/07 00:06:37;;;;;;;;;;;;;;;;;;5104179;28;19963;-74
2022/10/07 00:09:03;;;;;;;;;;;;;;;;;;5094873;28;19959;-74
2022/10/07 00:11:29;;;;;;;;;;;;;;;;;;5089104;28;19960;-74
2022/10/07 00:13:55;;;;;;;;;;;;;;;;;;5097348;28;19916;-75
2022/10/07 00:16:23;;;;;;;;;;;;;;;;;;5099597;28;19962;-74
2022/10/07 00:18:50;;;;;;;;;;;;;;;;;;5098263;28;19959;-74
2022/10/07 00:21:16;;;;;;;;;;;;;;;;;;5093402;28;20394;-74
2022/10/07 00:23:42;;;;;;;;;;;;;;;;;;5097079;28;20046;-74
2022/10/07 00:26:08;;;;;;;;;;;;;;;;;;5102564;28;19947;-74
2022/10/07 00:28:35;;;;;;;;;;;;;;;;;;5099959;28;19951;-75
2022/10/07 00:31:01;;;;;;;;;;;;;;;;;;5100545;28;19967;-74
2022/10/07 00:33:27;;;;;;;;;;;;;;;;;;5101540;28;19978;-74
2022/10/07 00:35:53;;;;;;;;;;;;;;;;;;5087885;28;19951;-74
2022/10/07 00:38:19;;;;;;;;;;;;;;;;;;5100772;28;19973;-74
2022/10/07 00:40:46;;;;;;;;;;;;;;;;;;5100187;27;19963;-75
2022/10/07 00:43:12;;;;;;;;;;;;;;;;;;5106722;28;19955;-74
2022/10/07 00:45:38;;;;;;;;;;;;;;;;;;5107965;28;19958;-74
2022/10/07 00:48:04;;;;;;;;;;;;;;;;;;5103397;28;20374;-74
2022/10/07 00:50:30;;;;;;;;;;;;;;;;;;5092894;28;19948;-75
2022/10/07 00:52:56;;;;;;;;;;;;;;;;;;5095881;28;19954;-75
2022/10/07 00:55:23;;;;;;;;;;;;;;;;;;5105398;28;19947;-75
2022/10/07 00:57:49;;;;;;;;;;;;;;;;;;5086142;28;19983;-75
2022/10/07 01:00:15;;;;;;;;;;;;;;;;;;5096991;28;20332;-76
2022/10/07 01:02:41;;;;;;;;;;;;;;;;;;5096403;28;19956;-75
2022/10/07 01:05:08;;;;;;;;;;;;;;;;;;5077813;28;19958;-75
2022/10/07 01:07:34;;;;;;;;;;;;;;;;;;5106823;28;19958;-75
2022/10/07 01:10:00;;;;;;;;;;;;;;;;;;5087430;28;19958;-75
2022/10/07 01:12:27;;;;;;;;;;;;;;;;;;5074196;28;19947;-76
2022/10/07 01:14:53;;;;;;;;;;;;;;;;;;5085102;28;19952;-75
2022/10/07 01:17:19;;;;;;;;;;;;;;;;;;5090831;28;19955;-75
2022/10/07 01:19:46;;;;;;;;;;;;;;;;;;5102659;28;19954;-75
2022/10/07 01:22:12;;;;;;;;;;;;;;;;;;5104619;28;19966;-75
2022/10/07 01:24:38;;;;;;;;;;;;;;;;;;5103158;28;20382;-76
2022/10/07 01:27:04;;;;;;;;;;;;;;;;;;5105815;28;20005;-75
2022/10/07 01:29:30;;;;;;;;;;;;;;;;;;5098917;28;20888;-75
2022/10/07 01:31:56;;;;;;;;;;;;;;;;;;5103943;28;19959;-75
2022/10/07 01:34:23;;;;;;;;;;;;;;;;;;5087738;28;19955;-75
2022/10/07 01:36:51;;;;;;;;;;;;;;;;;;5089876;28;20007;-75
2022/10/07 01:39:17;;;;;;;;;;;;;;;;;;5088097;28;19958;-75
2022/10/07 01:41:43;;;;;;;;;;;;;;;;;;5104553;28;20417;-75
2022/10/07 01:44:09;;;;;;;;;;;;;;;;;;5105981;28;19959;-75
2022/10/07 01:46:36;;;;;;;;;;;;;;;;;;5100026;28;19999;-75
2022/10/07 01:49:04;;;;;;;;;;;;;;;;;;5103414;28;20342;-74
2022/10/07 01:51:30;;;;;;;;;;;;;;;;;;5097421;28;19963;-75
2022/10/07 01:53:56;;;;;;;;;;;;;;;;;;5074223;28;20071;-75
2022/10/07 01:56:23;;;;;;;;;;;;;;;;;;5103880;28;20050;-74
2022/10/07 01:58:49;;;;;;;;;;;;;;;;;;5102203;27;20355;-75
2022/10/07 02:01:15;;;;;;;;;;;;;;;;;;5088834;28;19965;-74
2022/10/07 02:03:41;;;;;;;;;;;;;;;;;;5098009;28;19959;-75
2022/10/07 02:06:08;;;;;;;;;;;;;;;;;;5096042;28;19951;-74
2022/10/07 02:08:34;;;;;;;;;;;;;;;;;;5072249;28;20406;-75
2022/10/07 02:11:00;;;;;;;;;;;;;;;;;;5099206;27;20011;-75
2022/10/07 02:13:27;;;;;;;;;;;;;;;;;;5090964;28;19954;-75
2022/10/07 02:15:54;;;;;;;;;;;;;;;;;;5095559;28;19947;-75
2022/10/07 02:18:20;;;;;;;;;;;;;;;;;;5100143;28;19953;-75
2022/10/07 02:20:46;;;;;;;;;;;;;;;;;;5092165;28;20354;-76
2022/10/07 02:23:12;;;;;;;;;;;;;;;;;;5084969;28;19962;-76
2022/10/07 02:25:39;;;;;;;;;;;;;;;;;;5090417;28;19939;-76
2022/10/07 02:28:05;;;;;;;;;;;;;;;;;;5102573;28;20005;-76
2022/10/07 02:30:31;;;;;;;;;;;;;;;;;;5099721;28;19955;-74
2022/10/07 02:32:57;;;;;;;;;;;;;;;;;;5093890;28;20335;-75
2022/10/07 02:35:23;;;;;;;;;;;;;;;;;;5076252;28;19947;-75
2022/10/07 02:37:49;;;;;;;;;;;;;;;;;;5093523;28;19954;-75
2022/10/07 02:40:16;;;;;;;;;;;;;;;;;;5100579;28;19952;-75
2022/10/07 02:42:42;;;;;;;;;;;;;;;;;;5092563;28;19970;-75
2022/10/07 02:45:08;;;;;;;;;;;;;;;;;;5092935;28;19955;-75
2022/10/07 02:47:34;;;;;;;;;;;;;;;;;;5100446;28;19959;-76
2022/10/07 02:50:00;;;;;;;;;;;;;;;;;;5089598;28;19920;-75
2022/10/07 02:52:30;;;;;;;;;;;;;;;;;;5095096;28;19983;-75
2022/10/07 02:54:59;;;;;;;;;;;;;;;;;;5088575;28;20367;-75
2022/10/07 02:57:27;;;;;;;;;;;;;;;;;;5103885;28;19931;-75
2022/10/07 02:59:53;;;;;;;;;;;;;;;;;;5094604;28;20343;-75
2022/10/07 03:02:20;;;;;;;;;;;;;;;;;;5093385;28;19939;-75
2022/10/07 03:04:46;;;;;;;;;;;;;;;;;;5095333;28;19947;-75
2022/10/07 03:07:12;;;;;;;;;;;;;;;;;;5094575;28;19954;-75
2022/10/07 03:09:38;;;;;;;;;;;;;;;;;;5093594;28;19960;-75
2022/10/07 03:12:06;;;;;;;;;;;;;;;;;;5100883;28;20331;-74
2022/10/07 03:14:34;;;;;;;;;;;;;;;;;;5091273;28;20504;-74
2022/10/07 03:17:00;;;;;;;;;;;;;;;;;;5089943;28;19912;-74
2022/10/07 03:19:26;;;;;;;;;;;;;;;;;;5101059;28;20387;-74
2022/10/07 03:21:53;;;;;;;;;;;;;;;;;;5108070;28;20025;-74
2022/10/07 03:24:19;;;;;;;;;;;;;;;;;;5090006;28;19962;-74
2022/10/07 03:26:45;;;;;;;;;;;;;;;;;;5093995;28;19997;-76
2022/10/07 03:29:12;;;;;;;;;;;;;;;;;;5097159;28;19962;-74
2022/10/07 03:31:40;;;;;;;;;;;;;;;;;;5087338;28;19952;-75
2022/10/07 03:34:07;;;;;;;;;;;;;;;;;;5101981;28;19943;-74
2022/10/07 03:36:33;;;;;;;;;;;;;;;;;;5085157;28;19928;-78
2022/10/07 03:38:59;;;;;;;;;;;;;;;;;;5097973;28;19947;-74
2022/10/07 03:41:25;;;;;;;;;;;;;;;;;;5102277;28;20382;-74
2022/10/07 03:43:52;;;;;;;;;;;;;;;;;;5103299;28;19978;-74
2022/10/07 03:46:18;;;;;;;;;;;;;;;;;;5099151;28;20003;-74
2022/10/07 03:48:44;;;;;;;;;;;;;;;;;;5097456;27;20352;-75
2022/10/07 03:51:10;;;;;;;;;;;;;;;;;;5100273;28;20005;-74
2022/10/07 03:53:37;;;;;;;;;;;;;;;;;;5098269;28;19951;-75
2022/10/07 03:56:03;;;;;;;;;;;;;;;;;;5096004;28;19962;-74
2022/10/07 03:58:29;;;;;;;;;;;;;;;;;;5106100;28;19955;-75
2022/10/07 04:00:55;;;;;;;;;;;;;;;;;;5098342;28;19951;-75
2022/10/07 04:03:21;;;;;;;;;;;;;;;;;;5086949;28;19948;-75
2022/10/07 04:05:48;;;;;;;;;;;;;;;;;;5076227;28;20005;-74
2022/10/07 04:08:16;;;;;;;;;;;;;;;;;;5097825;28;19974;-74
2022/10/07 04:10:42;;;;;;;;;;;;;;;;;;5098382;28;19971;-75
2022/10/07 04:13:08;;;;;;;;;;;;;;;;;;5105061;28;19954;-75
2022/10/07 04:15:34;;;;;;;;;;;;;;;;;;5090710;28;20015;-75
2022/10/07 04:18:02;;;;;;;;;;;;;;;;;;5097504;28;19916;-75
2022/10/07 04:20:28;;;;;;;;;;;;;;;;;;5107902;28;20453;-75
2022/10/07 04:22:54;;;;;;;;;;;;;;;;;;5092862;28;19917;-75
2022/10/07 04:25:33;;;;;;;;;;;;;;;;;;5105929;27;20450;-75
2022/10/07 04:27:59;;;;;;;;;;;;;;;;;;5080430;28;20750;-75
2022/10/07 04:30:25;;;;;;;;;;;;;;;;;;5096560;28;19962;-74
2022/10/07 04:32:51;;;;;;;;;;;;;;;;;;5083032;28;19960;-75
2022/10/07 04:35:17;;;;;;;;;;;;;;;;;;5097636;28;19959;-75
2022/10/07 04:37:44;;;;;;;;;;;;;;;;;;5104895;28;19947;-75
2022/10/07 04:40:10;;;;;;;;;;;;;;;;;;5080455;28;19916;-75
2022/10/07 04:45:21;;;;;;;;;;;;;;;;;;5106689;28;19956;-74
2022/10/07 04:47:47;;;;;;;;;;;;;;;;;;5094403;28;19959;-75
2022/10/07 04:50:13;;;;;;;;;;;;;;;;;;5090694;28;19966;-74
2022/10/07 04:52:39;;;;;;;;;;;;;;;;;;5103752;28;19966;-76
2022/10/07 04:55:05;;;;;;;;;;;;;;;;;;5090091;28;19947;-75
2022/10/07 04:57:32;;;;;;;;;;;;;;;;;;5106449;28;19959;-75
2022/10/07 04:59:58;;;;;;;;;;;;;;;;;;5100902;27;19981;-74
2022/10/07 05:02:24;;;;;;;;;;;;;;;;;;5106029;27;20767;-74
2022/10/07 05:04:50;;;;;;;;;;;;;;;;;;5091525;28;19943;-75
2022/10/07 05:07:17;;;;;;;;;;;;;;;;;;5103262;28;19955;-74
2022/10/07 05:09:43;;;;;;;;;;;;;;;;;;5099604;28;20358;-75
2022/10/07 05:12:09;;;;;;;;;;;;;;;;;;5097962;27;19963;-74
2022/10/07 05:14:36;;;;;;;;;;;;;;;;;;5099659;28;19951;-75
2022/10/07 05:17:02;;;;;;;;;;;;;;;;;;5099327;28;20422;-74
2022/10/07 05:19:29;;;;;;;;;;;;;;;;;;5093442;28;19952;-74
2022/10/07 05:21:55;;;;;;;;;;;;;;;;;;5094411;28;20454;-74
2022/10/07 05:24:21;;;;;;;;;;;;;;;;;;5095259;28;20451;-75
2022/10/07 05:26:47;;;;;;;;;;;;;;;;;;5095672;28;19958;-75
2022/10/07 05:29:13;;;;;;;;;;;;;;;;;;5094282;28;19955;-75
2022/10/07 05:31:40;;;;;;;;;;;;;;;;;;5098600;28;19963;-75
2022/10/07 05:34:07;;;;;;;;;;;;;;;;;;5091442;28;19943;-75
2022/10/07 05:36:33;;;;;;;;;;;;;;;;;;5103762;28;19958;-76
2022/10/07 05:38:59;;;;;;;;;;;;;;;;;;5096329;28;20563;-77
2022/10/07 05:41:28;;;;;;;;;;;;;;;;;;5111427;27;20347;-77
2022/10/07 05:43:54;;;;;;;;;;;;;;;;;;5099518;28;19966;-77
2022/10/07 05:46:22;;;;;;;;;;;;;;;;;;5105487;28;19970;-77
2022/10/07 05:48:48;;;;;;;;;;;;;;;;;;5093310;28;19951;-77
2022/10/07 05:51:14;;;;;;;;;;;;;;;;;;5097444;28;19959;-77
2022/10/07 05:53:41;;;;;;;;;;;;;;;;;;5096436;28;19951;-77
2022/10/07 05:56:08;;;;;;;;;;;;;;;;;;5091657;28;19962;-77
2022/10/07 05:58:37;;;;;;;;;;;;;;;;;;5098037;28;19962;-78
2022/10/07 06:01:05;;;;;;;;;;;;;;;;;;5086361;28;19952;-77
2022/10/07 06:03:31;;;;;;;;;;;;;;;;;;5094288;28;19960;-77
2022/10/07 06:05:59;;;;;;;;;;;;;;;;;;5105287;28;20328;-77
2022/10/07 06:08:25;;;;;;;;;;;;;;;;;;5101271;28;19959;-77
2022/10/07 06:13:37;;;;;;;;;;;;;;;;;;5100714;27;20378;-77
2022/10/07 06:16:03;;;;;;;;;;;;;;;;;;5102650;28;20371;-77
2022/10/07 06:18:29;;;;;;;;;;;;;;;;;;5096993;28;19959;-77
2022/10/07 06:20:56;;;;;;;;;;;;;;;;;;5093072;28;19973;-77
2022/10/07 06:23:22;;;;;;;;;;;;;;;;;;5079128;28;20005;-76
2022/10/07 06:25:48;;;;;;;;;;;;;;;;;;5094984;28;19974;-76
2022/10/07 06:28:16;;;;;;;;;;;;;;;;;;5094155;28;19946;-76
2022/10/07 06:30:42;;;;;;;;;;;;;;;;;;5092258;28;19967;-76
2022/10/07 06:33:08;;;;;;;;;;;;;;;;;;5099640;28;20371;-76
2022/10/07 06:35:34;;;;;;;;;;;;;;;;;;5095830;28;19977;-77
2022/10/07 06:38:00;;;;;;;;;;;;;;;;;;5102205;28;19959;-76
2022/10/07 06:40:27;;;;;;;;;;;;;;;;;;5097980;28;19947;-76
2022/10/07 06:42:53;;;;;;;;;;;;;;;;;;5097506;28;19953;-76
2022/10/07 06:45:22;;;;;;;;;;;;;;;;;;5076211;28;20287;-75
2022/10/07 06:47:48;;;;;;;;;;;;;;;;;;5084870;28;19959;-75
2022/10/07 06:50:14;;;;;;;;;;;;;;;;;;5085756;28;20374;-75
2022/10/07 06:52:40;;;;;;;;;;;;;;;;;;5076625;28;19962;-75
2022/10/07 06:55:07;;;;;;;;;;;;;;;;;;5088792;28;19980;-75
2022/10/07 06:57:33;;;;;;;;;;;;;;;;;;5086363;28;19960;-75
2022/10/07 07:00:00;;;;;;;;;;;;;;;;;;5091951;28;21356;-75
2022/10/07 07:02:26;;;;;;;;;;;;;;;;;;5101439;28;19959;-75
2022/10/07 07:04:53;;;;;;;;;;;;;;;;;;5095474;28;20341;-76
2022/10/07 07:07:20;;;;;;;;;;;;;;;;;;5098639;28;19966;-75
2022/10/07 07:09:47;;;;;;;;;;;;;;;;;;5096092;28;19947;-76
2022/10/07 07:12:13;;;;;;;;;;;;;;;;;;5083355;28;20701;-76
2022/10/07 07:14:40;;;;;;;;;;;;;;;;;;5091394;28;20696;-76
2022/10/07 07:17:06;;;;;;;;;;;;;;;;;;5097411;28;20438;-76
2022/10/07 07:19:32;;;;;;;;;;;;;;;;;;5098206;28;19959;-76
2022/10/07 07:21:58;;;;;;;;;;;;;;;;;;5099183;28;19951;-76
2022/10/07 07:24:24;;;;;;;;;;;;;;;;;;5102461;28;20342;-76
2022/10/07 07:26:51;;;;;;;;;;;;;;;;;;5102994;28;19944;-75
2022/10/07 07:29:17;;;;;;;;;;;;;;;;;;5103304;28;19951;-75
2022/10/07 07:31:43;;;;;;;;;;;;;;;;;;5084585;28;19960;-75
2022/10/07 07:34:12;;;;;;;;;;;;;;;;;;5085793;28;19948;-76
2022/10/07 07:36:40;;;;;;;;;;;;;;;;;;5098594;28;19963;-76
2022/10/07 07:39:06;;;;;;;;;;;;;;;;;;5102329;28;19955;-75
2022/10/07 07:41:32;;;;;;;;;;;;;;;;;;5093932;28;19951;-75
2022/10/07 07:43:58;;;;;;;;;;;;;;;;;;5093573;28;19950;-75
2022/10/07 07:46:25;;;;;;;;;;;;;;;;;;5095275;28;19958;-77
2022/10/07 07:48:51;;;;;;;;;;;;;;;;;;5082883;28;19959;-75
2022/10/07 07:51:17;;;;;;;;;;;;;;;;;;5095955;28;19955;-75
2022/10/07 07:53:44;;;;;;;;;;;;;;;;;;5095860;28;20405;-75
2022/10/07 07:56:10;;;;;;;;;;;;;;;;;;5101707;28;19959;-74
2022/10/07 07:58:36;;;;;;;;;;;;;;;;;;5097385;28;19956;-75
2022/10/07 08:01:02;;;;;;;;;;;;;;;;;;5094639;28;19959;-74
2022/10/07 08:03:28;;;;;;;;;;;;;;;;;;5101225;28;20418;-74
2022/10/07 08:05:54;;;;;;;;;;;;;;;;;;5104761;28;19952;-75
2022/10/07 08:08:21;;;;;;;;;;;;;;;;;;5085806;28;19956;-74
2022/10/07 08:10:47;;;;;;;;;;;;;;;;;;5099703;28;19959;-74
2022/10/07 08:13:13;;;;;;;;;;;;;;;;;;5106428;28;19963;-74
2022/10/07 08:15:39;;;;;;;;;;;;;;;;;;5086462;28;19966;-74
2022/10/07 08:18:06;;;;;;;;;;;;;;;;;;5103316;28;19955;-74
2022/10/07 08:20:32;;;;;;;;;;;;;;;;;;5101652;28;19959;-75
2022/10/07 08:22:59;;;;;;;;;;;;;;;;;;5090653;28;19974;-74
2022/10/07 08:25:27;;;;;;;;;;;;;;;;;;5101271;28;19962;-74
2022/10/07 08:27:53;;;;;;;;;;;;;;;;;;5103672;28;20438;-75
2022/10/07 08:30:19;;;;;;;;;;;;;;;;;;5096897;28;19963;-74
2022/10/07 08:32:45;;;;;;;;;;;;;;;;;;5100169;28;19954;-74
2022/10/07 08:35:11;;;;;;;;;;;;;;;;;;5101659;28;19951;-75
2022/10/07 08:37:37;;;;;;;;;;;;;;;;;;5096313;28;19955;-76
2022/10/07 08:40:04;;;;;;;;;;;;;;;;;;5085841;28;19944;-76
2022/10/07 08:42:30;;;;;;;;;;;;;;;;;;5105678;28;19915;-76
2022/10/07 08:44:56;;;;;;;;;;;;;;;;;;5084097;28;19955;-76
2022/10/07 08:47:22;;;;;;;;;;;;;;;;;;5084295;28;20649;-76
2022/10/07 08:49:49;;;;;;;;;;;;;;;;;;5093309;28;19970;-76
2022/10/07 08:52:15;;;;;;;;;;;;;;;;;;5062551;28;19981;-77
2022/10/07 08:54:41;;;;;;;;;;;;;;;;;;5098823;28;19958;-77
2022/10/07 08:57:08;;;;;;;;;;;;;;;;;;5088139;28;20018;-76
2022/10/07 08:59:34;;;;;;;;;;;;;;;;;;5098564;28;19951;-78
2022/10/07 09:02:01;;;;;;;;;;;;;;;;;;5089312;28;19932;-77
2022/10/07 09:04:28;;;;;;;;;;;;;;;;;;5100578;28;19947;-77
2022/10/07 09:06:54;;;;;;;;;;;;;;;;;;5100419;28;20038;-76
2022/10/07 09:09:20;;;;;;;;;;;;;;;;;;5093744;28;19946;-75
2022/10/07 09:11:46;;;;;;;;;;;;;;;;;;5096732;28;19959;-75
2022/10/07 09:14:13;;;;;;;;;;;;;;;;;;5106548;28;20438;-75
2022/10/07 09:16:40;;;;;;;;;;;;;;;;;;5106194;28;19962;-76
2022/10/07 09:19:06;;;;;;;;;;;;;;;;;;5086402;28;20332;-75
2022/10/07 09:21:32;;;;;;;;;;;;;;;;;;5102295;27;19954;-75
2022/10/07 09:23:59;;;;;;;;;;;;;;;;;;5096593;28;19955;-76
2022/10/07 09:26:26;;;;;;;;;;;;;;;;;;5081138;28;20472;-75
2022/10/07 09:28:52;;;;;;;;;;;;;;;;;;5104036;28;20412;-75
2022/10/07 09:31:18;;;;;;;;;;;;;;;;;;5077986;28;19968;-76
2022/10/07 09:33:44;;;;;;;;;;;;;;;;;;5096671;28;19971;-75
2022/10/07 09:36:11;;;;;;;;;;;;;;;;;;5095580;28;21246;-76
2022/10/07 09:38:37;;;;;;;;;;;;;;;;;;5085795;28;19963;-76
2022/10/07 09:41:15;;;;;;;;;;;;;;;;;;5084785;28;20700;-76
2022/10/07 09:43:41;;;;;;;;;;;;;;;;;;5097507;28;20502;-77
2022/10/07 09:46:08;;;;;;;;;;;;;;;;;;5099386;28;19944;-76
2022/10/07 09:48:34;;;;;;;;;;;;;;;;;;5089994;28;19963;-76
2022/10/07 09:51:01;;;;;;;;;;;;;;;;;;5081185;28;20005;-76
2022/10/07 09:53:32;;;;;;;;;;;;;;;;;;5092040;28;19951;-76
2022/10/07 09:55:58;;;;;;;;;;;;;;;;;;5092381;28;19947;-78
2022/10/07 09:58:24;;;;;;;;;;;;;;;;;;5102236;28;19978;-76
2022/10/07 10:00:50;;;;;;;;;;;;;;;;;;5080210;28;20020;-76
2022/10/07 10:03:16;;;;;;;;;;;;;;;;;;5093165;28;20049;-76
2022/10/07 10:05:43;;;;;;;;;;;;;;;;;;5075156;28;19964;-76
2022/10/07 10:08:09;;;;;;;;;;;;;;;;;;5091025;28;19955;-76
2022/10/07 10:10:35;;;;;;;;;;;;;;;;;;5084203;28;19959;-78
2022/10/07 10:13:01;;;;;;;;;;;;;;;;;;5103638;28;19943;-76
2022/10/07 10:15:27;;;;;;;;;;;;;;;;;;5097774;28;19966;-76
2022/10/07 10:17:55;;;;;;;;;;;;;;;;;;5101780;28;19954;-76
2022/10/07 10:20:22;;;;;;;;;;;;;;;;;;5101812;28;19959;-76
2022/10/07 10:22:48;;;;;;;;;;;;;;;;;;5098064;28;19947;-76
2022/10/07 10:27:59;;;;;;;;;;;;;;;;;;5101814;28;20858;-78
2022/10/07 10:30:25;;;;;;;;;;;;;;;;;;5096582;27;19972;-76
2022/10/07 10:32:51;;;;;;;;;;;;;;;;;;5088521;28;19924;-76
2022/10/07 10:35:17;;;;;;;;;;;;;;;;;;5096338;28;19954;-76
2022/10/07 10:37:44;;;;;;;;;;;;;;;;;;5091823;28;19951;-76
2022/10/07 10:40:10;;;;;;;;;;;;;;;;;;5083795;28;19958;-76
2022/10/07 10:42:36;;;;;;;;;;;;;;;;;;5090667;28;19952;-79
2022/10/07 10:45:06;;;;;;;;;;;;;;;;;;5101433;28;19955;-76
2022/10/07 10:47:33;;;;;;;;;;;;;;;;;;5081896;28;19943;-76
2022/10/07 10:50:02;;;;;;;;;;;;;;;;;;5100048;28;19947;-75
2022/10/07 10:52:28;;;;;;;;;;;;;;;;;;5097096;28;19952;-75
2022/10/07 10:54:54;;;;;;;;;;;;;;;;;;5097496;28;20326;-75
2022/10/07 10:57:21;;;;;;;;;;;;;;;;;;5094587;28;20393;-77
2022/10/07 10:59:48;;;;;;;;;;;;;;;;;;5098665;28;19967;-76
2022/10/07 11:02:14;;;;;;;;;;;;;;;;;;5090777;28;19952;-79
2022/10/07 11:04:40;;;;;;;;;;;;;;;;;;5100294;28;19958;-81
2022/10/07 11:07:08;;;;;;;;;;;;;;;;;;5095311;28;20825;-80
2022/10/07 11:09:34;;;;;;;;;;;;;;;;;;5078932;28;19958;-82
2022/10/07 11:12:00;;;;;;;;;;;;;;;;;;5081699;28;20678;-81
2022/10/07 11:14:27;;;;;;;;;;;;;;;;;;5085643;28;19959;-80
2022/10/07 11:16:54;;;;;;;;;;;;;;;;;;5062876;28;19963;-82
2022/10/07 11:19:20;;;;;;;;;;;;;;;;;;5098133;28;19959;-82
2022/10/07 11:21:47;;;;;;;;;;;;;;;;;;5080523;28;20054;-82
2022/10/07 11:24:14;;;;;;;;;;;;;;;;;;5069953;28;20436;-82
2022/10/07 11:26:40;;;;;;;;;;;;;;;;;;5100833;28;19955;-82
2022/10/07 11:29:07;;;;;;;;;;;;;;;;;;5100719;28;19912;-83
2022/10/07 11:31:34;;;;;;;;;;;;;;;;;;5076523;28;19982;-81
2022/10/07 11:34:00;;;;;;;;;;;;;;;;;;5070071;28;19950;-82
2022/10/07 11:36:26;;;;;;;;;;;;;;;;;;5081450;28;20406;-81
2022/10/07 11:38:52;;;;;;;;;;;;;;;;;;5073187;28;19919;-82
2022/10/07 11:41:19;;;;;;;;;;;;;;;;;;5106404;28;19954;-81
2022/10/07 11:43:45;;;;;;;;;;;;;;;;;;5084152;28;19955;-82
2022/10/07 11:46:11;;;;;;;;;;;;;;;;;;5102892;28;19966;-82
2022/10/07 11:48:37;;;;;;;;;;;;;;;;;;5091199;28;21094;-81
2022/10/07 11:51:04;;;;;;;;;;;;;;;;;;5085062;28;19959;-81
2022/10/07 11:53:30;;;;;;;;;;;;;;;;;;5103237;28;20507;-82
2022/10/07 11:55:56;;;;;;;;;;;;;;;;;;5083105;28;19959;-82
2022/10/07 11:58:23;;;;;;;;;;;;;;;;;;5089492;28;19990;-82
2022/10/07 12:00:49;;;;;;;;;;;;;;;;;;5104802;28;19947;-81
2022/10/07 12:03:15;;;;;;;;;;;;;;;;;;5092168;28;19970;-81
2022/10/07 12:05:41;;;;;;;;;;;;;;;;;;5106893;28;19978;-82
2022/10/07 12:08:07;;;;;;;;;;;;;;;;;;5088646;28;20430;-81
2022/10/07 12:10:34;;;;;;;;;;;;;;;;;;5106790;28;19916;-81
2022/10/07 12:13:00;;;;;;;;;;;;;;;;;;5068727;28;19996;-81
2022/10/07 12:15:26;;;;;;;;;;;;;;;;;;5093531;28;19958;-82
2022/10/07 12:17:53;;;;;;;;;;;;;;;;;;5079335;28;20330;-83
2022/10/07 12:20:19;;;;;;;;;;;;;;;;;;5052690;28;19916;-83
2022/10/07 12:22:45;;;;;;;;;;;;;;;;;;5103018;28;19966;-82
2022/10/07 12:25:11;;;;;;;;;;;;;;;;;;5103423;27;20335;-81
2022/10/07 12:27:37;;;;;;;;;;;;;;;;;;5100354;28;19943;-81
2022/10/07 12:30:04;;;;;;;;;;;;;;;;;;5097915;28;19951;-81
2022/10/07 12:32:30;;;;;;;;;;;;;;;;;;5089936;28;20009;-81
2022/10/07 12:34:56;;;;;;;;;;;;;;;;;;5104198;28;19955;-82
2022/10/07 12:37:22;;;;;;;;;;;;;;;;;;5078586;28;20391;-82
2022/10/07 12:39:48;;;;;;;;;;;;;;;;;;5091387;28;19960;-82
2022/10/07 12:42:14;;;;;;;;;;;;;;;;;;5100953;28;19955;-82
2022/10/07 12:44:41;;;;;;;;;;;;;;;;;;5088693;28;19963;-82
2022/10/07 12:47:07;;;;;;;;;;;;;;;;;;5069124;28;19966;-82
2022/10/07 12:49:35;;;;;;;;;;;;;;;;;;5087733;28;19971;-82
2022/10/07 12:52:01;;;;;;;;;;;;;;;;;;5104705;28;20423;-82
2022/10/07 12:54:28;;;;;;;;;;;;;;;;;;5086708;28;19947;-81
2022/10/07 12:56:55;;;;;;;;;;;;;;;;;;5102554;28;20006;-82
2022/10/07 13:02:07;;;;;;;;;;;;;;;;;;5073523;28;19959;-82
2022/10/07 13:04:33;;;;;;;;;;;;;;;;;;5107085;28;19919;-82
2022/10/07 13:06:59;;;;;;;;;;;;;;;;;;5099236;28;20359;-82
2022/10/07 13:09:25;;;;;;;;;;;;;;;;;;5067685;28;19970;-82
2022/10/07 13:11:51;;;;;;;;;;;;;;;;;;5082561;28;19954;-82
2022/10/07 13:14:20;;;;;;;;;;;;;;;;;;5088812;28;19951;-82
2022/10/07 13:16:46;;;;;;;;;;;;;;;;;;5100566;28;20401;-82
2022/10/07 13:19:13;;;;;;;;;;;;;;;;;;5088787;28;19935;-82
2022/10/07 13:21:39;;;;;;;;;;;;;;;;;;5081887;28;19947;-81
2022/10/07 13:24:05;;;;;;;;;;;;;;;;;;5110745;27;19973;-82
2022/10/07 13:26:32;;;;;;;;;;;;;;;;;;5088133;28;19950;-82
2022/10/07 13:28:59;;;;;;;;;;;;;;;;;;5104612;27;19956;-82
2022/10/07 13:31:25;;;;;;;;;;;;;;;;;;5073504;28;19964;-81
2022/10/07 13:33:52;;;;;;;;;;;;;;;;;;5083205;28;19970;-81
2022/10/07 13:36:18;;;;;;;;;;;;;;;;;;5096416;28;20375;-81
2022/10/07 13:38:45;;;;;;;;;;;;;;;;;;5074757;28;19920;-81
2022/10/07 13:41:11;;;;;;;;;;;;;;;;;;5092383;28;19958;-82
2022/10/07 13:43:37;;;;;;;;;;;;;;;;;;5096247;28;20341;-81
2022/10/07 13:46:04;;;;;;;;;;;;;;;;;;5072683;28;20616;-82
2022/10/07 13:48:33;;;;;;;;;;;;;;;;;;5085868;28;20383;-81
2022/10/07 13:50:59;;;;;;;;;;;;;;;;;;5092811;28;19959;-82
2022/10/07 13:53:25;;;;;;;;;;;;;;;;;;5102086;28;20387;-82
2022/10/07 13:55:51;;;;;;;;;;;;;;;;;;5092004;28;19962;-81
2022/10/07 13:58:18;;;;;;;;;;;;;;;;;;5089644;28;19958;-81
2022/10/07 14:00:44;;;;;;;;;;;;;;;;;;5089386;28;19943;-81
2022/10/07 14:03:10;;;;;;;;;;;;;;;;;;5100914;28;20504;-81
2022/10/07 14:05:40;;;;;;;;;;;;;;;;;;5092741;28;19951;-83
2022/10/07 14:08:06;;;;;;;;;;;;;;;;;;5057957;28;19952;-82
2022/10/07 14:10:32;;;;;;;;;;;;;;;;;;5083368;28;20532;-81
2022/10/07 14:12:58;;;;;;;;;;;;;;;;;;5101381;28;19959;-81
2022/10/07 14:15:25;;;;;;;;;;;;;;;;;;5105176;28;20380;-81
2022/10/07 14:17:53;;;;;;;;;;;;;;;;;;5089868;27;19951;-81
2022/10/07 14:20:19;;;;;;;;;;;;;;;;;;5086003;28;20035;-81
2022/10/07 14:22:45;;;;;;;;;;;;;;;;;;5085564;28;19966;-81
2022/10/07 14:25:12;;;;;;;;;;;;;;;;;;5092059;28;20023;-82
2022/10/07 14:27:38;;;;;;;;;;;;;;;;;;5081554;28;19955;-81
2022/10/07 14:30:04;;;;;;;;;;;;;;;;;;5095943;28;19967;-82
2022/10/07 14:35:19;;;;;;;;;;;;;;;;;;5102531;28;20387;-82
2022/10/07 14:37:45;;;;;;;;;;;;;;;;;;5075708;28;20332;-81
2022/10/07 14:40:11;;;;;;;;;;;;;;;;;;5085248;28;19961;-82
2022/10/07 14:42:38;;;;;;;;;;;;;;;;;;5089667;28;19951;-81
2022/10/07 14:45:04;;;;;;;;;;;;;;;;;;5093055;28;19947;-81
2022/10/07 14:47:30;;;;;;;;;;;;;;;;;;5094241;28;20346;-81
2022/10/07 14:49:56;;;;;;;;;;;;;;;;;;5092315;28;19951;-81
2022/10/07 14:52:22;;;;;;;;;;;;;;;;;;5107618;27;19967;-81
2022/10/07 14:54:49;;;;;;;;;;;;;;;;;;5100155;28;20011;-81
2022/10/07 14:57:15;;;;;;;;;;;;;;;;;;5072950;28;19987;-81
2022/10/07 14:59:41;;;;;;;;;;;;;;;;;;5079388;28;19943;-81
2022/10/07 15:02:08;;;;;;;;;;;;;;;;;;5081627;28;20379;-81
2022/10/07 15:04:34;;;;;;;;;;;;;;;;;;5068124;28;19959;-81
2022/10/07 15:07:01;;;;;;;;;;;;;;;;;;5090998;28;20476;-81
2022/10/07 15:09:27;;;;;;;;;;;;;;;;;;5076659;28;20005;-81
2022/10/07 15:11:53;;;;;;;;;;;;;;;;;;5083176;28;19982;-82
2022/10/07 15:14:19;;;;;;;;;;;;;;;;;;5077298;28;20092;-81
2022/10/07 15:16:46;;;;;;;;;;;;;;;;;;5081812;28;19955;-81
2022/10/07 15:19:12;;;;;;;;;;;;;;;;;;5077356;28;19962;-81
2022/10/07 15:21:38;;;;;;;;;;;;;;;;;;5081219;28;19956;-81
2022/10/07 15:24:04;;;;;;;;;;;;;;;;;;5078349;28;20498;-81
2022/10/07 15:26:30;;;;;;;;;;;;;;;;;;5079898;28;19956;-82
2022/10/07 15:28:57;;;;;;;;;;;;;;;;;;5081646;28;19966;-81
2022/10/07 15:31:23;;;;;;;;;;;;;;;;;;5080731;28;19979;-81
2022/10/07 15:33:49;;;;;;;;;;;;;;;;;;5081773;28;19952;-81
2022/10/07 15:36:16;;;;;;;;;;;;;;;;;;5098787;28;20546;-82
2022/10/07 15:38:42;;;;;;;;;;;;;;;;;;5086051;28;19972;-81
2022/10/07 15:41:08;;;;;;;;;;;;;;;;;;5081337;28;20340;-82
2022/10/07 15:43:35;;;;;;;;;;;;;;;;;;5082513;28;19912;-82
2022/10/07 15:46:01;;;;;;;;;;;;;;;;;;5088167;28;19946;-82
2022/10/07 15:48:27;;;;;;;;;;;;;;;;;;5085365;28;20067;-81
2022/10/07 15:50:53;;;;;;;;;;;;;;;;;;5081610;28;20367;-82
2022/10/07 15:53:20;;;;;;;;;;;;;;;;;;5082594;28;19966;-81
2022/10/07 15:55:47;;;;;;;;;;;;;;;;;;5078958;28;19963;-82
2022/10/07 15:58:13;;;;;;;;;;;;;;;;;;5094666;28;19989;-81
2022/10/07 16:00:39;;;;;;;;;;;;;;;;;;5101693;28;19959;-81
2022/10/07 16:03:05;;;;;;;;;;;;;;;;;;5097559;28;20307;-82
2022/10/07 16:05:31;;;;;;;;;;;;;;;;;;5089601;28;19951;-81
2022/10/07 16:08:00;;;;;;;;;;;;;;;;;;5102861;28;19963;-81
2022/10/07 16:10:26;;;;;;;;;;;;;;;;;;5103751;28;20451;-82
2022/10/07 16:12:53;;;;;;;;;;;;;;;;;;5095820;28;19944;-82
2022/10/07 16:15:19;;;;;;;;;;;;;;;;;;5095220;28;19951;-81
2022/10/07 16:17:45;;;;;;;;;;;;;;;;;;5101596;28;19915;-82
2022/10/07 16:20:14;;;;;;;;;;;;;;;;;;5103038;28;19913;-82
2022/10/07 16:22:40;;;;;;;;;;;;;;;;;;5098862;28;19916;-82
2022/10/07 16:25:06;;;;;;;;;;;;;;;;;;5098190;28;20379;-81
2022/10/07 16:33:02;;;;;;;;;;;;;;;;;;5095818;28;20092;-82
2022/10/07 16:35:29;;;;;;;;;;;;;;;;;;5089613;28;20069;-81
2022/10/07 16:37:55;;;;;;;;;;;;;;;;;;5101379;28;20010;-82
2022/10/07 16:40:22;;;;;;;;;;;;;;;;;;5101961;28;19947;-81
2022/10/07 16:42:49;;;;;;;;;;;;;;;;;;5097818;28;19948;-82
2022/10/07 16:45:15;;;;;;;;;;;;;;;;;;5103206;28;19958;-81
2022/10/07 16:47:41;;;;;;;;;;;;;;;;;;5086881;28;20000;-81
2022/10/07 16:50:07;;;;;;;;;;;;;;;;;;5076261;28;19947;-82
2022/10/07 16:52:34;;;;;;;;;;;;;;;;;;5099295;28;20417;-82
2022/10/07 16:55:00;;;;;;;;;;;;;;;;;;5095102;28;19954;-81
2022/10/07 16:57:26;;;;;;;;;;;;;;;;;;5097364;28;19974;-82
2022/10/07 16:59:53;;;;;;;;;;;;;;;;;;5077670;27;20017;-81